Aviation Digital Data Service (ADDS)

Output produced by METARs form (1247 UTC 21 February 2018)
found at http://www.aviationweather.gov/adds/metars/
 
TAF MHSC 201302Z 2013/2119 VRB06KT 9999 SCT060 QNH3007INS 
     BECMG 2017/2018 VRB06KT 9999 FEW060 QNH2997INS 
     BECMG 2117/2118 08012G18KT 9999 SCT065 QNH3005INS TX31/2020Z TN16/2013Z
       
TAF MHSC 201302Z 2013/2119 VRB06KT 9999 SCT060 QNH3007INS 
     BECMG 2017/2018 VRB06KT 9999 FEW060 QNH2997INS 
     BECMG 2117/2118 08012G18KT 9999 SCT065 QNH3005INS TX31/2020Z TN16/2013Z
       
TAF MHSC 201302Z 2013/2119 VRB06KT 9999 SCT060 QNH3007INS 
     BECMG 2017/2018 VRB06KT 9999 FEW060 QNH2997INS 
     BECMG 2117/2118 08012G18KT 9999 SCT065 QNH3005INS TX31/2020Z TN16/2013Z